Time;durP1;ratioP1;P1;durP2;ratioP2;P2;SDS_P1;SDS_P2;PMS_P1;PMS_P2;Temp;Humidity;BMP_temperature;BMP_pressure;BME280_temperature;BME280_humidity;BME280_pressure;Samples;Min_cycle;Max_cycle;Signal;HPM_P1;HPM_P2
2022/12/21 00:01:27;;;;;;;;;10.00;8.33;;;;;12.48;85.74;100745.44;5013027;28;45401;-67
2022/12/21 00:03:59;;;;;;;;;13.00;9.00;;;;;12.43;85.39;100738.44;5011661;28;45446;-67
2022/12/21 00:06:26;;;;;;;;;8.67;7.33;;;;;12.55;85.30;100756.75;5015826;28;46550;-68
2022/12/21 00:08:54;;;;;;;;;8.00;6.67;;;;;12.50;85.53;100742.78;5014139;28;45521;-74
2022/12/21 00:11:22;;;;;;;;;10.33;9.67;;;;;12.52;85.19;100741.88;5015255;28;45457;-66
2022/12/21 00:13:48;;;;;;;;;10.00;8.67;;;;;12.64;84.58;100747.97;5015577;28;45540;-67
2022/12/21 00:16:18;;;;;;;;;10.67;7.67;;;;;12.65;84.58;100747.97;5014156;28;46170;-69
2022/12/21 00:18:45;;;;;;;;;10.67;9.33;;;;;12.59;84.41;100745.34;5011740;28;46057;-70
2022/12/21 00:21:18;;;;;;;;;12.00;11.33;;;;;12.73;85.00;100766.28;5030568;28;45398;-69
2022/12/21 00:23:46;;;;;;;;;11.67;9.00;;;;;12.70;84.63;100759.31;5015044;28;45442;-69
2022/12/21 00:26:13;;;;;;;;;11.00;9.00;;;;;12.71;84.71;100762.81;4999275;28;46096;-68
2022/12/21 00:28:39;;;;;;;;;12.67;8.67;;;;;12.76;84.65;100762.78;5009982;28;45557;-67
2022/12/21 00:31:06;;;;;;;;;9.67;7.33;;;;;12.78;84.50;100764.50;5015131;28;45626;-69
2022/12/21 00:33:32;;;;;;;;;12.67;9.33;;;;;12.80;84.45;100762.75;5029199;28;45604;-69
2022/12/21 00:36:00;;;;;;;;;8.67;8.67;;;;;12.76;84.15;100754.88;5012804;28;45924;-68
2022/12/21 00:38:26;;;;;;;;;9.33;9.00;;;;;12.67;84.51;100751.44;5015639;28;45493;-68
2022/12/21 00:40:57;;;;;;;;;8.33;7.00;;;;;12.62;84.12;100731.31;5020017;28;45501;-69
2022/12/21 00:43:22;;;;;;;;;14.33;8.33;;;;;12.71;84.59;100757.53;5012082;28;45518;-68
2022/12/21 00:45:48;;;;;;;;;9.00;7.67;;;;;12.75;84.69;100761.03;5017412;28;45367;-68
2022/12/21 00:48:13;;;;;;;;;8.00;7.00;;;;;12.72;84.28;100751.44;5015286;28;45475;-68
2022/12/21 00:50:39;;;;;;;;;10.33;8.00;;;;;12.70;84.73;100746.16;5013500;28;45723;-69
2022/12/21 00:53:05;;;;;;;;;9.67;8.33;;;;;12.66;84.38;100741.81;5028415;28;45508;-67
2022/12/21 00:55:30;;;;;;;;;11.33;9.33;;;;;12.63;84.66;100736.59;5013294;28;46277;-67
2022/12/21 00:57:59;;;;;;;;;12.00;8.67;;;;;12.75;84.50;100764.53;5024474;28;45506;-67
2022/12/21 01:00:25;;;;;;;;;10.33;9.33;;;;;12.72;84.86;100762.81;5009170;28;45438;-66
2022/12/21 01:02:50;;;;;;;;;9.33;8.33;;;;;12.73;84.49;100764.53;5011788;28;45602;-68
2022/12/21 01:05:16;;;;;;;;;11.33;8.67;;;;;12.78;84.65;100763.63;5027143;28;47799;-67
2022/12/21 01:07:42;;;;;;;;;11.33;10.67;;;;;12.72;84.29;100770.69;5011371;28;45687;-68
2022/12/21 01:10:08;;;;;;;;;12.50;9.00;;;;;12.57;85.05;100739.22;5012845;28;45479;-67
2022/12/21 01:12:34;;;;;;;;;14.00;11.67;;;;;12.78;84.57;100775.03;5027589;28;45651;-69
2022/12/21 01:14:59;;;;;;;;;16.75;14.00;;;;;12.79;84.79;100775.88;5002848;28;47627;-67
2022/12/21 01:17:25;;;;;;;;;15.75;14.25;;;;;12.82;84.72;100774.13;5016810;28;45430;-68
2022/12/21 01:19:51;;;;;;;;;17.25;12.00;;;;;12.80;84.98;100764.50;5017166;28;45341;-68
2022/12/21 01:22:16;;;;;;;;;16.00;12.00;;;;;12.76;84.61;100765.41;5029701;28;45608;-68
2022/12/21 01:24:42;;;;;;;;;9.67;9.33;;;;;12.79;84.73;100773.25;5012273;28;46733;-68
2022/12/21 01:27:08;;;;;;;;;11.33;7.67;;;;;12.79;84.79;100773.25;5001986;28;45432;-68
2022/12/21 01:29:33;;;;;;;;;13.67;8.67;;;;;12.61;84.70;100747.97;4994589;28;45750;-67
2022/12/21 01:31:59;;;;;;;;;11.33;10.67;;;;;12.84;84.12;100782.88;5011191;28;45442;-66
2022/12/21 01:34:24;;;;;;;;;9.33;8.67;;;;;12.85;84.46;100786.38;4994381;28;46123;-68
2022/12/21 01:36:50;;;;;;;;;6.67;6.33;;;;;12.84;84.55;100789.91;5001558;28;45589;-68
2022/12/21 01:39:16;;;;;;;;;10.67;6.67;;;;;12.85;84.47;100781.13;5006987;28;45486;-67
2022/12/21 01:41:41;;;;;;;;;5.33;5.33;;;;;12.82;84.25;100766.25;5001782;28;45490;-67
2022/12/21 01:45:02;;;;;;;;;9.33;6.33;;;;;12.85;84.04;100783.75;5012099;28;47088;-68
2022/12/21 01:47:41;;;;;;;;;10.33;6.33;;;;;12.86;84.04;100793.38;4945394;28;45493;-69
2022/12/21 01:50:18;;;;;;;;;5.67;5.00;;;;;12.86;83.92;100798.63;5006825;28;45490;-70
2022/12/21 01:52:45;;;;;;;;;5.33;5.33;;;;;12.84;83.95;100789.91;5013665;28;45661;-66
2022/12/21 01:55:10;;;;;;;;;5.33;5.33;;;;;12.82;84.43;100796.91;5011999;28;45722;-68
2022/12/21 01:57:36;;;;;;;;;7.00;4.33;;;;;12.76;84.27;100789.06;5014854;28;45948;-68
2022/12/21 02:00:04;;;;;;;;;6.33;6.33;;;;;12.71;84.33;100774.19;5016532;28;45411;-68
2022/12/21 02:02:38;;;;;;;;;6.67;6.33;;;;;12.78;84.31;100792.56;5010848;28;45348;-68
2022/12/21 02:05:16;;;;;;;;;5.00;5.00;;;;;12.75;83.78;100782.06;5022871;28;46862;-68
2022/12/21 02:07:44;;;;;;;;;4.00;4.00;;;;;12.83;83.77;100798.66;5008720;28;45391;-68
2022/12/21 02:10:10;;;;;;;;;6.67;6.67;;;;;12.82;83.88;100796.91;5012322;28;45549;-68
2022/12/21 02:12:37;;;;;;;;;5.00;4.00;;;;;12.81;83.62;100798.66;5012278;28;45511;-68
2022/12/21 02:15:03;;;;;;;;;5.00;5.00;;;;;12.89;83.70;100817.88;5011946;28;45497;-70
2022/12/21 02:17:35;;;;;;;;;7.00;4.67;;;;;12.89;83.57;100817.03;5034579;28;45493;-68
2022/12/21 02:20:31;;;;;;;;;6.33;6.33;;;;;12.91;82.86;100817.88;5019443;28;45585;-68
2022/12/21 02:23:18;;;;;;;;;7.33;5.00;;;;;12.83;82.31;100806.53;5016330;28;45426;-67
2022/12/21 02:25:50;;;;;;;;;5.00;5.00;;;;;12.83;81.70;100817.03;5015777;28;45485;-67
2022/12/21 02:28:44;;;;;;;;;4.00;4.00;;;;;12.77;81.09;100810.09;5019605;28;45446;-67
2022/12/21 02:31:22;;;;;;;;;4.67;2.67;;;;;12.70;81.04;100805.75;5019172;28;45282;-68
2022/12/21 02:33:51;;;;;;;;;5.00;5.00;;;;;12.66;81.12;100806.63;5019359;28;45427;-67
2022/12/21 02:36:30;;;;;;;;;3.00;3.00;;;;;12.62;81.38;100803.13;5014671;28;46291;-67
2022/12/21 02:39:40;;;;;;;;;3.33;3.33;;;;;12.55;81.18;100804.03;5030329;28;45392;-68
2022/12/21 02:44:12;;;;;;;;;3.00;3.00;;;;;12.45;80.62;100789.22;5007897;28;45629;-68
2022/12/21 02:45:19;;;;;;;;;3.00;3.00;;;;;12.43;80.22;100796.22;5011277;28;45489;-68
2022/12/21 02:48:26;;;;;;;;;4.00;2.00;;;;;12.32;80.62;100792.81;5029901;28;46468;-68
2022/12/21 02:51:04;;;;;;;;;2.00;2.00;;;;;12.30;80.07;100795.44;5000884;28;45653;-68
2022/12/21 02:53:36;;;;;;;;;3.00;3.00;;;;;12.35;79.61;100816.41;5013596;28;45404;-67
2022/12/21 02:56:02;;;;;;;;;2.00;2.00;;;;;12.19;79.72;100795.44;5017368;28;45547;-68
2022/12/21 02:58:27;;;;;;;;;2.00;2.00;;;;;12.26;79.63;100807.69;5029817;28;47608;-68
2022/12/21 03:00:53;;;;;;;;;4.00;2.33;;;;;12.23;79.52;100812.09;5019225;28;45527;-68
2022/12/21 03:03:50;;;;;;;;;1.00;1.00;;;;;12.19;79.66;100821.72;5033417;28;45470;-69
2022/12/21 03:06:24;;;;;;;;;1.00;1.00;;;;;12.18;79.81;100822.59;5004178;28;45538;-68
2022/12/21 03:09:11;;;;;;;;;1.33;1.00;;;;;12.08;80.05;100810.38;5013818;28;45449;-68
2022/12/21 03:11:53;;;;;;;;;1.00;1.00;;;;;12.13;80.18;100821.75;5015678;28;45500;-68
2022/12/21 03:15:07;;;;;;;;;4.00;2.00;;;;;12.11;79.24;100828.75;5015156;28;45629;-69
2022/12/21 03:17:45;;;;;;;;;1.67;1.67;;;;;12.01;79.20;100829.66;5010517;28;45517;-68
2022/12/21 03:20:35;;;;;;;;;3.67;1.00;;;;;12.07;79.56;100837.50;5018158;28;47568;-68
2022/12/21 03:23:10;;;;;;;;;2.00;1.00;;;;;12.05;79.22;100839.25;5029190;28;45743;-68
2022/12/21 03:25:49;;;;;;;;;2.67;1.00;;;;;12.05;78.85;100839.25;5018074;28;45514;-68
2022/12/21 03:28:25;;;;;;;;;1.00;1.00;;;;;11.91;79.00;100817.41;5011776;28;45546;-67
2022/12/21 03:30:55;;;;;;;;;1.00;1.00;;;;;11.98;79.01;100835.78;5016173;28;45825;-68
2022/12/21 03:33:26;;;;;;;;;1.67;1.67;;;;;11.91;79.06;100826.16;5014372;28;45414;-68
2022/12/21 03:36:19;;;;;;;;;1.00;1.00;;;;;11.95;79.28;100842.78;5014353;28;45699;-68
2022/12/21 03:38:51;;;;;;;;;4.00;1.00;;;;;11.94;78.97;100839.28;5012034;28;45365;-67
2022/12/21 03:41:29;;;;;;;;;2.00;2.00;;;;;11.79;79.07;100818.28;5018883;28;47926;-67
2022/12/21 03:44:01;;;;;;;;;0.00;0.00;;;;;11.81;79.11;100834.91;5015537;28;45647;-69
2022/12/21 03:46:38;;;;;;;;;0.67;0.67;;;;;11.83;79.91;100825.28;5014686;28;45451;-69
2022/12/21 03:49:12;;;;;;;;;1.00;1.00;;;;;11.94;79.05;100844.53;5013518;28;45597;-70
2022/12/21 03:51:46;;;;;;;;;2.00;2.00;;;;;11.94;78.91;100849.78;5001588;28;46299;-69
2022/12/21 03:54:20;;;;;;;;;3.00;2.00;;;;;11.95;78.88;100846.28;5011173;28;45785;-68
2022/12/21 03:56:47;;;;;;;;;4.00;2.33;;;;;11.96;78.05;100847.16;5019149;28;45495;-67
2022/12/21 03:59:15;;;;;;;;;2.00;2.00;;;;;11.85;78.73;100829.66;5008383;28;45522;-68
2022/12/21 04:02:09;;;;;;;;;2.33;1.00;;;;;11.94;78.52;100843.69;5009886;28;46397;-68
2022/12/21 04:04:53;;;;;;;;;1.00;1.00;;;;;11.92;78.12;100843.66;5022316;28;45505;-67
2022/12/21 04:07:24;;;;;;;;;3.33;1.00;;;;;11.87;78.05;100843.69;5013533;28;45859;-68
2022/12/21 04:10:01;;;;;;;;;1.00;1.00;;;;;11.85;78.08;100848.00;5012574;28;45589;-68
2022/12/21 04:12:36;;;;;;;;;1.00;1.00;;;;;11.83;78.05;100843.66;4994817;28;45706;-68
2022/12/21 04:15:18;;;;;;;;;0.00;0.00;;;;;11.78;77.60;100841.03;5003669;28;45642;-68
2022/12/21 04:17:46;;;;;;;;;2.00;1.00;;;;;11.84;77.38;100850.63;5007949;28;45391;-67
2022/12/21 04:20:18;;;;;;;;;2.00;0.33;;;;;11.83;77.52;100854.16;5008667;28;45507;-68
2022/12/21 04:28:22;;;;;;;;;1.00;1.00;;;;;11.82;77.25;100871.66;5016736;28;45366;-67
2022/12/21 04:30:48;;;;;;;;;2.00;1.00;;;;;11.68;77.71;100848.03;5015774;28;45562;-68
2022/12/21 04:33:17;;;;;;;;;1.00;1.00;;;;;11.75;77.71;100863.78;5006901;28;45490;-68
2022/12/21 04:38:30;;;;;;;;;1.67;1.67;;;;;11.81;77.33;100869.00;5011258;28;45462;-68
2022/12/21 04:40:56;;;;;;;;;1.00;1.00;;;;;11.82;77.02;100868.16;4997512;28;45502;-68
2022/12/21 04:43:23;;;;;;;;;2.33;1.00;;;;;11.75;76.84;100867.28;5001190;28;45485;-68
2022/12/21 04:45:49;;;;;;;;;1.00;1.00;;;;;11.73;76.55;100862.91;5011324;28;45350;-68
2022/12/21 04:48:15;;;;;;;;;1.00;1.00;;;;;11.73;77.32;100860.28;5005366;28;45459;-68
2022/12/21 04:50:41;;;;;;;;;3.67;2.00;;;;;11.77;77.12;100867.25;4998893;28;45456;-68
2022/12/21 04:53:07;;;;;;;;;3.33;1.67;;;;;11.77;76.91;100876.03;4996104;28;45414;-69
2022/12/21 04:55:32;;;;;;;;;1.33;1.00;;;;;11.71;76.79;100856.78;5002698;28;45958;-68
2022/12/21 04:57:58;;;;;;;;;2.00;2.00;;;;;11.76;77.05;100871.63;4994827;28;45399;-68
2022/12/21 05:00:23;;;;;;;;;2.33;2.00;;;;;11.74;77.25;100886.50;4997392;28;45486;-68
2022/12/21 05:02:50;;;;;;;;;2.00;2.00;;;;;11.60;77.04;100854.16;5008302;28;46902;-68
2022/12/21 05:05:15;;;;;;;;;2.00;2.00;;;;;11.65;77.27;100863.78;5003190;28;45780;-68
2022/12/21 05:07:41;;;;;;;;;1.00;1.00;;;;;11.74;77.62;100883.00;5005360;28;45798;-68
2022/12/21 05:10:07;;;;;;;;;1.00;1.00;;;;;11.73;76.72;100889.16;5015376;28;45521;-68
2022/12/21 05:12:33;;;;;;;;;1.00;1.00;;;;;11.70;76.98;100889.13;5010462;28;45629;-68
2022/12/21 05:14:58;;;;;;;;;2.33;2.00;;;;;11.68;77.36;100892.66;4996666;28;45987;-67
2022/12/21 05:17:24;;;;;;;;;3.00;2.00;;;;;11.62;76.85;100890.00;4999215;28;45443;-68
2022/12/21 05:19:49;;;;;;;;;5.33;2.00;;;;;11.63;76.85;100883.03;5013209;28;45583;-68
2022/12/21 05:22:18;;;;;;;;;4.33;4.00;;;;;11.67;77.33;100896.16;5011857;28;45593;-68
2022/12/21 05:24:44;;;;;;;;;2.33;2.00;;;;;11.55;77.11;100874.28;5003132;28;45902;-66
2022/12/21 05:27:11;;;;;;;;;5.00;3.33;;;;;11.60;76.94;100880.38;5011068;28;45546;-68
2022/12/21 05:29:37;;;;;;;;;3.67;2.00;;;;;11.48;76.62;100867.28;5013248;28;45363;-68
2022/12/21 05:32:02;;;;;;;;;3.00;3.00;;;;;11.48;76.50;100869.91;5010764;28;48024;-68
2022/12/21 05:34:28;;;;;;;;;3.00;2.00;;;;;11.57;76.83;100888.25;5010879;28;45534;-67
2022/12/21 05:36:54;;;;;;;;;2.33;2.33;;;;;11.47;76.55;100879.53;5010183;28;45342;-68
2022/12/21 05:39:19;;;;;;;;;2.00;1.00;;;;;11.52;77.02;100890.88;5011151;28;45402;-70
2022/12/21 05:41:45;;;;;;;;;1.00;1.00;;;;;11.41;76.33;100876.88;5012429;28;45451;-68
2022/12/21 05:44:11;;;;;;;;;1.33;1.00;;;;;11.43;77.11;100878.63;5011651;28;45483;-68
2022/12/21 05:46:36;;;;;;;;;2.00;2.00;;;;;11.38;76.27;100880.38;5008056;28;45466;-68
2022/12/21 05:49:02;;;;;;;;;1.33;1.33;;;;;11.43;76.96;100891.75;5010358;28;45503;-69
2022/12/21 05:51:28;;;;;;;;;1.33;1.33;;;;;11.41;76.91;100900.47;5014782;28;45483;-68
2022/12/21 05:53:54;;;;;;;;;3.00;3.00;;;;;11.39;77.39;100902.22;5018367;28;45481;-68
2022/12/21 05:56:20;;;;;;;;;2.00;2.00;;;;;11.37;77.17;100904.00;5018552;28;45534;-69
2022/12/21 05:58:46;;;;;;;;;1.33;1.33;;;;;11.31;76.97;100899.59;5016084;28;45521;-68
2022/12/21 06:01:12;;;;;;;;;2.00;2.00;;;;;11.33;76.48;100903.09;5015071;28;45486;-68
2022/12/21 06:03:39;;;;;;;;;3.00;1.00;;;;;11.32;76.87;100905.72;5013709;28;45490;-67
2022/12/21 06:06:10;;;;;;;;;2.67;2.00;;;;;11.30;76.84;100904.88;5015859;28;45516;-68
2022/12/21 06:08:37;;;;;;;;;2.00;1.33;;;;;11.27;77.19;100905.72;5019774;28;45352;-68
2022/12/21 06:11:10;;;;;;;;;2.00;2.00;;;;;11.10;76.44;100892.56;5018771;28;45392;-69
2022/12/21 06:13:37;;;;;;;;;1.00;1.00;;;;;11.15;77.53;100903.06;5019286;28;45394;-69
2022/12/21 06:16:10;;;;;;;;;1.33;1.33;;;;;11.12;77.77;100895.19;5019867;28;45411;-68
2022/12/21 06:18:39;;;;;;;;;2.00;2.00;;;;;11.16;76.93;100897.84;5033698;28;45583;-69
2022/12/21 06:21:05;;;;;;;;;4.00;2.00;;;;;11.15;76.93;100898.72;5019785;28;46560;-69
2022/12/21 06:23:31;;;;;;;;;2.33;2.00;;;;;11.11;76.21;100886.47;5016959;28;45470;-68
2022/12/21 06:25:59;;;;;;;;;4.00;2.00;;;;;11.06;76.33;100901.31;5015417;28;45439;-66
2022/12/21 06:28:25;;;;;;;;;3.00;3.00;;;;;11.05;76.58;100915.28;5015233;28;45494;-67
2022/12/21 06:30:52;;;;;;;;;3.00;3.00;;;;;10.98;76.48;100906.50;5018222;28;46712;-68
2022/12/21 06:33:20;;;;;;;;;2.67;2.00;;;;;11.01;76.15;100914.41;5019074;28;45276;-69
2022/12/21 06:35:46;;;;;;;;;3.00;2.00;;;;;10.95;76.26;100913.50;5015317;28;45488;-68
2022/12/21 06:38:12;;;;;;;;;3.67;3.00;;;;;10.89;76.17;100919.59;5029746;28;45498;-67
2022/12/21 06:40:37;;;;;;;;;4.67;2.00;;;;;10.71;76.06;100896.81;5014589;28;46037;-67
2022/12/21 06:43:03;;;;;;;;;1.00;1.00;;;;;10.71;76.90;100920.41;5017715;28;45392;-68
2022/12/21 06:45:28;;;;;;;;;1.67;1.67;;;;;10.78;76.92;100921.31;5017932;28;45522;-67
2022/12/21 06:47:54;;;;;;;;;1.67;1.67;;;;;10.79;76.64;100931.78;5018171;28;45496;-68
2022/12/21 06:50:23;;;;;;;;;1.67;1.00;;;;;10.78;76.85;100923.91;5028944;28;46896;-68
2022/12/21 06:52:49;;;;;;;;;3.00;2.00;;;;;10.69;77.48;100924.75;5014496;28;45521;-68
2022/12/21 06:55:15;;;;;;;;;2.00;2.00;;;;;10.57;76.84;100922.06;5029407;28;45677;-68
2022/12/21 06:57:42;;;;;;;;;2.33;2.00;;;;;10.53;77.61;100938.63;5014440;28;45540;-68
2022/12/21 07:00:09;;;;;;;;;4.00;2.33;;;;;10.54;76.98;100951.75;5003696;28;46265;-69
2022/12/21 07:02:35;;;;;;;;;4.33;3.00;;;;;10.44;77.74;100934.25;5023459;28;45399;-68
2022/12/21 07:05:01;;;;;;;;;4.00;3.00;;;;;10.41;77.22;100918.50;5019024;28;45430;-68
2022/12/21 07:07:27;;;;;;;;;5.00;2.00;;;;;10.53;77.32;100939.50;5013518;28;45550;-68
2022/12/21 07:09:52;;;;;;;;;5.00;3.25;;;;;10.51;76.91;100954.34;5011863;28;46010;-68
2022/12/21 07:12:21;;;;;;;;;2.00;2.00;;;;;10.50;77.40;100955.22;5015071;28;45446;-69
2022/12/21 07:14:47;;;;;;;;;4.25;3.00;;;;;10.47;77.54;100956.94;5000830;28;45618;-67
2022/12/21 07:17:12;;;;;;;;;3.50;1.25;;;;;10.58;77.13;100956.16;5015466;28;45593;-68
2022/12/21 07:19:38;;;;;;;;;5.00;3.00;;;;;10.48;76.55;100938.59;5012161;28;45509;-68
2022/12/21 07:22:03;;;;;;;;;3.50;2.25;;;;;10.47;76.57;100941.25;5015746;28;45339;-67
2022/12/21 07:24:29;;;;;;;;;4.00;3.00;;;;;10.57;76.07;100953.50;5019048;28;45546;-68
2022/12/21 07:26:55;;;;;;;;;5.50;3.00;;;;;10.55;76.27;100957.84;5016220;28;45404;-68
2022/12/21 07:29:20;;;;;;;;;2.50;2.50;;;;;10.50;75.96;100946.47;5014288;28;45345;-68
2022/12/21 07:31:46;;;;;;;;;5.25;3.50;;;;;10.36;76.31;100935.91;5014345;28;45368;-67
2022/12/21 07:34:11;;;;;;;;;4.25;3.00;;;;;10.45;76.05;100949.06;5014211;28;45569;-66
2022/12/21 07:36:37;;;;;;;;;3.50;3.00;;;;;10.47;75.87;100955.19;5010576;28;45939;-68
2022/12/21 07:39:03;;;;;;;;;4.00;3.50;;;;;10.45;76.36;100949.06;5014116;28;46213;-67
2022/12/21 07:41:28;;;;;;;;;2.50;2.50;;;;;10.42;76.20;100948.16;5017239;28;45422;-67
2022/12/21 07:43:55;;;;;;;;;5.00;5.00;;;;;10.40;76.04;100963.88;5018008;28;45497;-67
2022/12/21 07:46:20;;;;;;;;;6.00;4.00;;;;;10.42;76.33;100971.72;5016584;28;45480;-67
2022/12/21 07:48:46;;;;;;;;;5.75;5.75;;;;;10.45;75.93;100975.25;5014180;28;45439;-67
2022/12/21 07:51:12;;;;;;;;;6.75;3.75;;;;;10.33;76.06;100957.72;5019108;28;45509;-68
2022/12/21 07:53:38;;;;;;;;;6.25;6.25;;;;;10.44;76.07;100972.63;5014412;28;45454;-67
2022/12/21 07:56:13;;;;;;;;;5.00;5.00;;;;;10.48;76.05;100975.28;5029371;28;45753;-67
2022/12/21 07:58:39;;;;;;;;;3.50;3.00;;;;;10.47;76.36;100970.03;5013503;28;45472;-68
2022/12/21 08:01:13;;;;;;;;;8.50;6.25;;;;;10.41;75.81;100976.09;5028610;28;45596;-69
2022/12/21 08:03:41;;;;;;;;;6.25;4.00;;;;;10.43;76.29;100983.97;5010139;28;45801;-68
2022/12/21 08:06:07;;;;;;;;;5.50;4.00;;;;;10.52;75.63;100986.66;5011848;28;45456;-68
2022/12/21 08:08:34;;;;;;;;;6.50;4.00;;;;;10.52;75.78;100984.03;5013033;28;46158;-69
2022/12/21 08:11:01;;;;;;;;;3.50;3.00;;;;;10.50;75.91;100968.31;5013190;28;45479;-66
2022/12/21 08:13:26;;;;;;;;;6.50;4.25;;;;;10.65;75.39;100980.59;5015035;28;45562;-67
2022/12/21 08:16:02;;;;;;;;;4.00;4.00;;;;;10.58;75.70;100979.72;5014230;28;45760;-68
2022/12/21 08:18:28;;;;;;;;;5.75;5.75;;;;;10.70;74.95;100980.63;5013691;28;45723;-68
2022/12/21 08:20:55;;;;;;;;;7.00;4.75;;;;;10.68;75.23;100982.34;5028564;28;45458;-67
2022/12/21 08:23:20;;;;;;;;;9.75;5.75;;;;;10.65;75.28;100966.63;5017033;28;45344;-67
2022/12/21 08:25:46;;;;;;;;;4.75;4.50;;;;;10.71;74.73;100971.91;5033053;28;45543;-68
2022/12/21 08:28:12;;;;;;;;;8.25;6.25;;;;;11.27;74.60;100993.97;5013175;28;45570;-67
2022/12/21 08:30:48;;;;;;;;;7.75;4.75;;;;;13.26;68.69;100969.31;5026352;28;45607;-68
2022/12/21 08:33:15;;;;;;;;;5.50;5.50;;;;;15.23;63.27;100977.22;5017395;28;45487;-68
2022/12/21 08:35:43;;;;;;;;;5.67;5.00;;;;;16.81;58.95;100955.25;5015316;28;45908;-69
2022/12/21 08:38:13;;;;;;;;;9.33;5.33;;;;;16.81;56.52;100959.69;5013860;28;45806;-69
2022/12/21 08:40:38;;;;;;;;;7.67;6.00;;;;;15.86;57.17;100965.75;5014222;28;45365;-68
2022/12/21 08:43:04;;;;;;;;;6.00;4.67;;;;;17.50;55.70;100956.41;5015121;28;45292;-68
2022/12/21 08:45:31;;;;;;;;;7.67;7.00;;;;;19.00;52.26;100956.94;5018993;28;45466;-69
2022/12/21 08:47:57;;;;;;;;;5.33;4.67;;;;;20.42;49.03;100955.06;5014848;28;46347;-70
2022/12/21 08:50:23;;;;;;;;;7.00;6.67;;;;;21.41;46.66;100958.53;5003792;28;45566;-68
2022/12/21 08:52:48;;;;;;;;;8.33;5.00;;;;;22.41;43.30;100965.94;5009137;28;45494;-68
2022/12/21 08:55:14;;;;;;;;;5.33;3.67;;;;;23.32;42.32;100931.56;5011882;28;45893;-67
2022/12/21 08:57:39;;;;;;;;;4.00;4.00;;;;;24.54;40.49;100949.53;5009746;28;45567;-68
2022/12/21 09:00:09;;;;;;;;;5.00;4.67;;;;;24.27;39.88;100951.78;5009731;28;45486;-69
2022/12/21 09:02:36;;;;;;;;;6.00;5.67;;;;;22.96;39.83;100941.22;5004073;28;45737;-67
2022/12/21 09:05:02;;;;;;;;;5.00;5.00;;;;;22.20;42.16;100926.81;4996979;28;45489;-69
2022/12/21 09:07:27;;;;;;;;;4.00;3.67;;;;;20.92;43.58;100929.28;5000708;28;45633;-67
2022/12/21 09:09:53;;;;;;;;;4.67;3.00;;;;;19.74;45.79;100944.06;4994453;28;45587;-68
2022/12/21 09:12:18;;;;;;;;;5.00;3.00;;;;;18.99;48.20;100933.13;5013598;28;45649;-68
2022/12/21 09:14:44;;;;;;;;;5.00;4.00;;;;;19.18;47.92;100923.66;5011505;28;45432;-67
2022/12/21 09:17:10;;;;;;;;;5.33;5.33;;;;;19.26;47.15;100956.16;5004142;28;45423;-68
2022/12/21 09:19:36;;;;;;;;;8.00;5.00;;;;;19.51;47.03;100958.06;5002321;28;45547;-69
2022/12/21 09:22:01;;;;;;;;;3.00;3.00;;;;;19.17;47.18;100956.47;5009930;28;45682;-68
2022/12/21 09:24:27;;;;;;;;;9.67;4.33;;;;;19.52;47.09;100953.63;5013292;28;45334;-68
2022/12/21 09:26:52;;;;;;;;;7.33;4.00;;;;;18.86;47.61;100929.94;5017768;28;45672;-68
2022/12/21 09:29:19;;;;;;;;;6.33;5.00;;;;;18.03;49.28;100950.72;5014227;28;45305;-68
2022/12/21 09:31:54;;;;;;;;;4.67;4.67;;;;;17.77;50.26;100954.88;5008826;28;45387;-69
2022/12/21 09:34:19;;;;;;;;;5.00;4.67;;;;;17.86;50.73;100956.44;5013489;28;45346;-68
2022/12/21 09:36:45;;;;;;;;;3.33;3.33;;;;;18.25;49.63;100958.13;4999013;28;45357;-69
2022/12/21 09:39:10;;;;;;;;;5.00;3.00;;;;;17.81;50.53;100958.34;5008374;28;45540;-68
2022/12/21 09:41:36;;;;;;;;;3.00;2.67;;;;;17.67;50.56;100974.53;5012021;28;45422;-69
2022/12/21 09:44:39;;;;;;;;;6.00;3.33;;;;;16.73;52.46;100983.59;5013681;28;45854;-67
2022/12/21 13:42:27;;;;;;;;;5.25;5.00;;;;;10.21;87.33;100687.16;5127526;27;46945;-65
2022/12/21 13:45:00;;;;;;;;;6.75;5.00;;;;;10.30;87.90;100681.97;5093224;27;45357;-64
2022/12/21 13:47:31;;;;;;;;;6.25;6.25;;;;;10.38;87.93;100669.75;5104697;27;45511;-65
2022/12/21 13:50:18;;;;;;;;;7.00;5.50;;;;;10.53;87.65;100669.75;5114701;27;45630;-66
2022/12/21 13:52:48;;;;;;;;;3.00;3.00;;;;;10.66;87.26;100668.03;5109562;27;45614;-64
2022/12/21 13:55:46;;;;;;;;;6.25;4.50;;;;;10.69;86.91;100654.94;5108025;27;45446;-65
2022/12/21 13:58:33;;;;;;;;;6.75;6.75;;;;;10.84;86.87;100664.53;5107474;27;45581;-64
2022/12/21 14:01:12;;;;;;;;;8.50;6.00;;;;;10.89;86.21;100661.91;5104622;27;45450;-65
2022/12/21 14:03:44;;;;;;;;;4.75;4.75;;;;;10.98;86.10;100657.53;5115497;27;46864;-64
2022/12/21 14:06:46;;;;;;;;;6.25;4.00;;;;;11.01;85.58;100647.06;5133632;27;45539;-65
2022/12/21 14:09:54;;;;;;;;;6.50;6.50;;;;;11.06;84.85;100647.06;5130348;27;46210;-65
2022/12/21 14:12:49;;;;;;;;;6.75;5.00;;;;;11.18;84.55;100648.81;5119542;27;45423;-65
2022/12/21 14:15:36;;;;;;;;;7.50;6.25;;;;;11.17;84.30;100637.41;5130763;27;45702;-65
2022/12/21 14:18:09;;;;;;;;;4.50;4.50;;;;;11.23;84.40;100634.78;5129526;27;45399;-66
2022/12/21 14:20:37;;;;;;;;;4.50;4.50;;;;;11.23;84.36;100639.16;5129752;27;45523;-65
2022/12/21 14:23:13;;;;;;;;;5.25;5.25;;;;;11.23;84.65;100634.78;5121546;27;45578;-64
2022/12/21 14:25:44;;;;;;;;;7.75;5.00;;;;;11.27;84.90;100643.53;5129555;27;46288;-65
2022/12/21 14:28:27;;;;;;;;;7.00;6.00;;;;;11.34;84.39;100642.66;5126161;27;45531;-65
2022/12/21 14:31:02;;;;;;;;;4.00;4.00;;;;;11.33;85.08;100637.41;5129393;27;45553;-65
2022/12/21 14:33:45;;;;;;;;;7.75;5.50;;;;;11.34;84.67;100631.25;5125388;27;45462;-65
2022/12/21 14:36:19;;;;;;;;;5.00;4.00;;;;;11.42;84.64;100637.38;5097543;27;45684;-65
2022/12/21 14:39:03;;;;;;;;;6.00;5.25;;;;;11.42;84.89;100629.50;5117411;27;46002;-66
2022/12/21 14:45:15;;;;;;;;;10.33;4.00;;;;;11.36;84.70;100608.53;5131007;27;45475;-66
2022/12/21 14:48:20;;;;;;;;;6.00;4.75;;;;;11.40;84.90;100618.16;5114212;27;46223;-65
2022/12/21 14:51:01;;;;;;;;;5.25;4.00;;;;;11.38;85.83;100615.50;5133698;27;45493;-66
2022/12/21 14:53:26;;;;;;;;;4.00;4.00;;;;;11.38;85.80;100607.66;5107861;27;45952;-65
2022/12/21 14:56:18;;;;;;;;;5.00;4.00;;;;;11.37;86.16;100610.28;5086873;27;45382;-66
2022/12/21 14:58:57;;;;;;;;;4.75;4.00;;;;;11.33;86.49;100606.78;5111113;27;45477;-65
2022/12/21 15:01:47;;;;;;;;;4.33;4.33;;;;;11.31;86.81;100581.47;5099133;27;45378;-65
2022/12/21 15:04:12;;;;;;;;;4.00;2.00;;;;;11.35;87.03;100597.19;5108835;27;45434;-66
2022/12/21 15:06:47;;;;;;;;;4.67;4.00;;;;;11.36;87.74;100596.28;5091028;27;45820;-65
2022/12/21 15:09:19;;;;;;;;;5.33;4.00;;;;;11.41;86.77;100597.16;5095078;27;47046;-65
2022/12/21 15:11:50;;;;;;;;;3.00;3.00;;;;;11.35;86.80;100584.06;5095458;27;46803;-65
2022/12/21 15:14:27;;;;;;;;;7.33;4.00;;;;;11.38;87.55;100581.44;5100365;27;45444;-65
2022/12/21 15:16:53;;;;;;;;;2.67;2.67;;;;;11.43;87.52;100589.28;5098557;27;45454;-65
2022/12/21 15:19:45;;;;;;;;;4.00;4.00;;;;;11.43;87.57;100586.66;5096856;27;46264;-66
2022/12/21 15:22:19;;;;;;;;;4.00;4.00;;;;;11.45;87.41;100585.75;5095328;27;45431;-67
2022/12/21 15:24:54;;;;;;;;;2.00;2.00;;;;;11.43;87.90;100577.03;5094937;27;45602;-66
2022/12/21 15:27:40;;;;;;;;;6.25;4.75;;;;;11.41;87.79;100570.94;5098337;27;45419;-65
2022/12/21 15:30:34;;;;;;;;;3.00;3.00;;;;;11.49;88.52;100577.91;5088023;27;45462;-66
2022/12/21 15:33:20;;;;;;;;;7.33;4.67;;;;;11.44;88.91;100570.94;5099139;27;45278;-66
2022/12/21 15:35:55;;;;;;;;;6.00;3.00;;;;;11.43;88.82;100563.06;5100273;27;45333;-66
2022/12/21 15:38:40;;;;;;;;;4.00;4.00;;;;;11.43;89.17;100560.44;5100539;27;45416;-64
2022/12/21 15:41:20;;;;;;;;;4.00;4.00;;;;;11.42;89.60;100551.69;5099986;27;46213;-64
2022/12/21 15:43:57;;;;;;;;;4.33;4.33;;;;;11.45;89.19;100548.19;5094472;27;45552;-65
2022/12/21 15:46:39;;;;;;;;;3.00;3.00;;;;;11.53;88.68;100545.53;5083771;27;45502;-66
2022/12/21 15:49:14;;;;;;;;;7.67;3.67;;;;;11.53;88.82;100529.78;5095274;27;45354;-65
2022/12/21 15:51:42;;;;;;;;;5.00;5.00;;;;;11.46;88.98;100502.75;5094704;27;46485;-66